createdAt,value
2023-02-17T00:01:28.625Z,5.70
2023-02-17T00:06:32.561Z,5.73
2023-02-17T00:11:36.209Z,5.74
2023-02-17T00:16:40.643Z,5.74
2023-02-17T00:21:43.942Z,5.76
2023-02-17T00:26:47.456Z,5.77
2023-02-17T00:31:53.107Z,5.76
2023-02-17T00:36:56.784Z,5.77
2023-02-17T00:42:00.365Z,5.75
2023-02-17T00:47:03.881Z,5.75
2023-02-17T00:52:07.395Z,5.74
2023-02-17T00:57:11.323Z,5.73
2023-02-17T01:02:14.735Z,5.68
2023-02-17T01:07:18.260Z,5.73
2023-02-17T01:12:22.380Z,5.73
2023-02-17T01:17:25.799Z,5.74
2023-02-17T01:22:29.923Z,5.68
2023-02-17T01:27:33.444Z,5.69
2023-02-17T01:32:37.677Z,5.71
2023-02-17T01:37:41.091Z,5.71
2023-02-17T01:42:44.697Z,5.73
2023-02-17T01:47:50.465Z,5.76
2023-02-17T01:52:55.339Z,5.78
2023-02-17T01:58:01.795Z,5.79
2023-02-17T02:03:09.111Z,5.81
2023-02-17T02:08:13.539Z,5.82
2023-02-17T02:13:16.846Z,5.90
2023-02-17T02:18:41.050Z,5.88
2023-02-17T02:24:21.430Z,5.88
2023-02-17T02:29:53.974Z,5.89
2023-02-17T02:35:11.270Z,5.89
2023-02-17T02:40:17.041Z,5.91
2023-02-17T02:45:21.686Z,5.94
2023-02-17T02:50:43.731Z,5.98
2023-02-17T02:56:06.619Z,6.02
2023-02-17T03:01:19.969Z,6.01
2023-02-17T03:06:38.101Z,6.02
2023-02-17T03:11:42.462Z,6.05
2023-02-17T03:16:46.501Z,6.05
2023-02-17T03:22:01.552Z,6.04
2023-02-17T03:27:05.067Z,6.02
2023-02-17T03:32:08.873Z,6.03
2023-02-17T03:37:12.402Z,6.08
2023-02-17T03:42:16.527Z,6.11
2023-02-17T03:47:20.048Z,6.16
2023-02-17T03:52:23.572Z,6.19
2023-02-17T03:57:27.078Z,6.21
2023-02-17T04:02:30.497Z,6.22
2023-02-17T04:07:34.004Z,6.24
2023-02-17T04:12:37.633Z,6.24
2023-02-17T04:17:40.932Z,6.22
2023-02-17T04:22:46.600Z,6.20
2023-02-17T04:27:50.009Z,6.21
2023-02-17T04:32:53.423Z,6.19
2023-02-17T04:37:57.043Z,6.20
2023-02-17T04:43:00.562Z,6.23
2023-02-17T04:48:04.290Z,6.25
2023-02-17T04:53:08.517Z,6.26
2023-02-17T04:58:11.821Z,6.24
2023-02-17T05:03:15.444Z,6.23
2023-02-17T05:08:19.059Z,6.22
2023-02-17T05:13:22.370Z,6.19
2023-02-17T05:18:25.886Z,6.19
2023-02-17T05:23:29.399Z,6.16
2023-02-17T05:28:32.810Z,6.13
2023-02-17T05:33:37.157Z,6.15
2023-02-17T05:38:41.072Z,6.19
2023-02-17T05:43:44.999Z,6.22
2023-02-17T05:48:48.824Z,6.23
2023-02-17T05:53:52.130Z,6.27
2023-02-17T05:58:55.657Z,6.29
2023-02-17T06:03:59.164Z,6.27
2023-02-17T06:09:02.689Z,6.24
2023-02-17T06:14:06.097Z,6.23
2023-02-17T06:19:09.510Z,6.13
2023-02-17T06:24:12.820Z,6.21
2023-02-17T06:29:16.236Z,6.25
2023-02-17T06:34:19.844Z,6.27
2023-02-17T06:39:23.565Z,6.26
2023-02-17T06:44:27.288Z,6.26
2023-02-17T06:49:30.700Z,6.23
2023-02-17T06:54:34.109Z,6.26
2023-02-17T06:59:37.525Z,6.29
2023-02-17T07:04:42.063Z,6.32
2023-02-17T07:09:45.581Z,6.33
2023-02-17T07:14:49.001Z,6.38
2023-02-17T07:19:52.517Z,6.44
2023-02-17T07:24:56.036Z,6.48
2023-02-17T07:29:59.717Z,6.57
2023-02-17T07:35:03.372Z,6.58
2023-02-17T07:40:07.903Z,6.56
2023-02-17T07:45:11.007Z,6.58
2023-02-17T07:50:14.630Z,6.52
2023-02-17T07:55:18.140Z,6.49
2023-02-17T08:00:22.070Z,6.47
2023-02-17T08:05:25.476Z,6.51
2023-02-17T08:10:47.732Z,6.57
2023-02-17T08:15:51.159Z,6.69
2023-02-17T08:20:54.665Z,6.75
2023-02-17T08:25:59.519Z,6.79
2023-02-17T08:31:03.432Z,6.97
2023-02-17T08:36:08.501Z,7.07
2023-02-17T08:41:18.246Z,7.13
2023-02-17T08:46:22.230Z,7.18
2023-02-17T08:51:26.258Z,7.23
2023-02-17T08:56:31.230Z,7.30
2023-02-17T09:01:36.342Z,7.39
2023-02-17T09:06:42.480Z,7.48
2023-02-17T09:11:46.004Z,7.55
2023-02-17T09:16:50.943Z,7.66
2023-02-17T09:21:54.791Z,7.76
2023-02-17T09:26:58.211Z,7.86
2023-02-17T09:32:01.855Z,7.91
2023-02-17T09:37:11.473Z,7.95
2023-02-17T09:42:24.915Z,7.95
2023-02-17T09:47:53.411Z,7.97
2023-02-17T09:53:03.382Z,8.11
2023-02-17T09:58:17.731Z,8.23
2023-02-17T10:03:31.336Z,8.21
2023-02-17T10:08:45.980Z,8.18
2023-02-17T10:13:51.374Z,8.16
2023-02-17T10:19:01.463Z,8.04
2023-02-17T10:24:05.337Z,7.92
2023-02-17T10:29:20.838Z,7.84
2023-02-17T10:34:51.574Z,7.85
2023-02-17T10:39:58.881Z,7.89
2023-02-17T10:45:06.806Z,7.90
2023-02-17T10:50:25.372Z,7.90
2023-02-17T10:55:39.753Z,7.81
2023-02-17T11:00:43.715Z,7.76
2023-02-17T11:05:58.147Z,7.72
2023-02-17T11:11:30.626Z,7.62
2023-02-17T11:16:40.199Z,7.67
2023-02-17T11:21:44.500Z,7.71
2023-02-17T11:27:02.997Z,7.71
2023-02-17T11:32:11.262Z,7.68
2023-02-17T11:37:14.530Z,7.72
2023-02-17T11:42:29.286Z,7.67
2023-02-17T11:47:49.896Z,7.63
2023-02-17T11:53:18.127Z,7.54
2023-02-17T11:58:30.744Z,7.51
2023-02-17T12:04:03.549Z,7.56
2023-02-17T12:09:20.781Z,7.52
2023-02-17T12:14:45.904Z,7.54
2023-02-17T12:20:15.977Z,7.60
2023-02-17T12:25:32.055Z,7.57
2023-02-17T12:31:02.977Z,7.58
2023-02-17T12:36:13.084Z,7.70
2023-02-17T12:41:35.950Z,7.67
2023-02-17T12:46:43.866Z,7.64
2023-02-17T12:51:59.568Z,7.61
2023-02-17T12:57:14.978Z,7.60
2023-02-17T13:02:24.073Z,7.58
2023-02-17T13:07:44.630Z,7.54
2023-02-17T13:13:28.087Z,7.55
2023-02-17T13:18:37.846Z,7.52
2023-02-17T13:23:43.769Z,7.50
2023-02-17T13:28:48.577Z,7.54
2023-02-17T13:33:57.405Z,7.54
2023-02-17T13:39:26.922Z,7.57
2023-02-17T13:44:32.075Z,7.58
2023-02-17T13:49:35.697Z,7.58
2023-02-17T13:54:39.311Z,7.58
2023-02-17T13:59:42.933Z,7.57
2023-02-17T14:04:46.885Z,7.60
2023-02-17T14:09:55.105Z,7.64
2023-02-17T14:14:58.595Z,7.65
2023-02-17T14:20:02.220Z,7.68
2023-02-17T14:25:26.525Z,7.70
2023-02-17T14:30:39.663Z,7.71
2023-02-17T14:36:04.024Z,7.72
2023-02-17T14:41:12.082Z,7.75
2023-02-17T14:46:19.710Z,7.76
2023-02-17T14:51:26.296Z,7.78
2023-02-17T14:56:38.811Z,7.79
2023-02-17T15:01:42.258Z,7.81
2023-02-17T15:06:50.871Z,7.82
2023-02-17T15:11:54.582Z,7.84
2023-02-17T15:16:57.898Z,7.96
2023-02-17T15:22:03.779Z,7.98
2023-02-17T15:27:07.896Z,7.99
2023-02-17T15:32:20.719Z,7.99
2023-02-17T15:37:25.779Z,7.97
2023-02-17T15:42:29.501Z,8.01
2023-02-17T15:47:33.010Z,7.99
2023-02-17T15:52:36.527Z,7.98
2023-02-17T15:57:48.865Z,7.99
2023-02-17T16:02:53.565Z,8.00
2023-02-17T16:07:57.208Z,8.03
2023-02-17T16:13:02.159Z,8.04
2023-02-17T16:18:06.604Z,8.06
2023-02-17T16:23:10.009Z,8.09
2023-02-17T16:28:21.685Z,8.10
2023-02-17T16:33:25.241Z,8.14
2023-02-17T16:38:30.287Z,8.17
2023-02-17T16:43:35.032Z,8.19
2023-02-17T16:48:42.554Z,8.24
2023-02-17T16:53:46.068Z,8.28
2023-02-17T16:58:49.571Z,8.34
2023-02-17T17:03:53.260Z,8.40
2023-02-17T17:08:57.212Z,8.40
2023-02-17T17:14:00.840Z,8.39
2023-02-17T17:19:04.551Z,8.41
2023-02-17T17:24:07.967Z,8.44
2023-02-17T17:29:16.846Z,8.49
2023-02-17T17:34:20.433Z,8.52
2023-02-17T17:39:24.657Z,8.64
2023-02-17T17:44:28.685Z,8.70
2023-02-17T17:49:32.612Z,8.72
2023-02-17T17:54:36.449Z,8.72
2023-02-17T17:59:40.360Z,8.79
2023-02-17T18:04:43.814Z,8.83
2023-02-17T18:09:47.599Z,8.92
2023-02-17T18:14:54.734Z,9.01
2023-02-17T18:19:58.419Z,9.10
2023-02-17T18:25:01.833Z,9.22
2023-02-17T18:30:06.814Z,9.33
2023-02-17T18:35:13.579Z,9.38
2023-02-17T18:40:18.105Z,9.39
2023-02-17T18:45:21.931Z,9.42
2023-02-17T18:50:26.670Z,9.45
2023-02-17T18:55:30.088Z,9.50
2023-02-17T19:00:33.705Z,9.55
2023-02-17T19:05:37.434Z,9.62
2023-02-17T19:10:40.832Z,9.67
2023-02-17T19:15:44.357Z,9.70
2023-02-17T19:20:47.961Z,9.74
2023-02-17T19:25:51.582Z,9.75
2023-02-17T19:30:58.516Z,9.78
2023-02-17T19:36:16.646Z,9.78
2023-02-17T19:41:20.257Z,9.80
2023-02-17T19:46:25.980Z,9.81
2023-02-17T19:51:29.849Z,9.79
2023-02-17T19:56:35.445Z,9.77
2023-02-17T20:01:41.161Z,9.69
2023-02-17T20:06:48.382Z,9.44
2023-02-17T20:11:53.443Z,9.14
2023-02-17T20:16:57.264Z,8.92
2023-02-17T20:22:01.403Z,8.76
2023-02-17T20:27:05.003Z,8.63
2023-02-17T20:32:08.857Z,8.57
2023-02-17T20:37:12.550Z,8.58
2023-02-17T20:42:16.369Z,8.59
2023-02-17T20:47:19.885Z,8.50
2023-02-17T20:52:23.407Z,8.23
2023-02-17T20:57:28.459Z,8.03
2023-02-17T21:02:32.094Z,7.91
2023-02-17T21:07:35.592Z,7.76
2023-02-17T21:12:39.106Z,7.58
2023-02-17T21:17:43.036Z,7.47
2023-02-17T21:22:47.061Z,7.42
2023-02-17T21:27:50.582Z,7.13
2023-02-17T21:32:55.629Z,7.03
2023-02-17T21:37:59.245Z,6.85
2023-02-17T21:43:21.401Z,6.81
2023-02-17T21:48:25.321Z,6.79
2023-02-17T21:53:28.832Z,6.87
2023-02-17T21:58:33.136Z,6.89
2023-02-17T22:03:36.476Z,6.91
2023-02-17T22:08:40.093Z,6.94
2023-02-17T22:13:43.816Z,6.96
2023-02-17T22:18:47.436Z,6.95
2023-02-17T22:23:51.460Z,6.93
2023-02-17T22:28:55.394Z,6.90
2023-02-17T22:34:01.419Z,6.90
2023-02-17T22:39:06.821Z,6.90
2023-02-17T22:44:10.642Z,6.93
2023-02-17T22:49:14.259Z,6.98
2023-02-17T22:54:17.884Z,7.06
2023-02-17T22:59:21.395Z,7.09
2023-02-17T23:04:25.030Z,7.13
2023-02-17T23:09:28.632Z,7.12
2023-02-17T23:14:39.058Z,7.05
2023-02-17T23:19:42.832Z,6.92
2023-02-17T23:24:47.894Z,6.86
2023-02-17T23:29:51.606Z,6.75
2023-02-17T23:34:55.137Z,6.67
2023-02-17T23:39:58.943Z,6.61
2023-02-17T23:45:02.360Z,6.57
2023-02-17T23:50:07.146Z,6.53
2023-02-17T23:55:10.927Z,6.53
